Time;durP1;ratioP1;P1;durP2;ratioP2;P2;SDS_P1;SDS_P2;PMS_P1;PMS_P2;Temp;Humidity;BMP_temperature;BMP_pressure;BME280_temperature;BME280_humidity;BME280_pressure;Samples;Min_cycle;Max_cycle;Signal;HPM_P1;HPM_P2
2024/03/17 00:00:50;;;;;;;0.40;0.40;;;;;;;-0.12;83.12;100870.69;5127842;28;20034;-73
2024/03/17 00:03:15;;;;;;;0.50;0.50;;;;;;;-0.09;83.40;100886.13;5127734;28;20024;-73
2024/03/17 00:05:41;;;;;;;0.40;0.40;;;;;;;-0.09;82.47;100898.91;5109572;28;20020;-72
2024/03/17 00:08:08;;;;;;;0.50;0.50;;;;;;;-0.05;82.94;100903.31;5109523;28;20051;-73
2024/03/17 00:10:34;;;;;;;0.50;0.50;;;;;;;-0.11;82.95;100913.25;5127698;28;20085;-72
2024/03/17 00:12:59;;;;;;;0.50;0.50;;;;;;;-0.24;82.88;100909.31;5128289;28;20020;-69
2024/03/17 00:15:25;;;;;;;0.55;0.55;;;;;;;-0.15;83.24;100940.34;5127633;28;20049;-73
2024/03/17 00:17:50;;;;;;;0.40;0.40;;;;;;;-0.18;83.25;100924.91;5127608;28;20099;-73
2024/03/17 00:20:19;;;;;;;0.40;0.40;;;;;;;-0.11;83.64;100938.78;5127491;28;20071;-73
2024/03/17 00:22:49;;;;;;;0.43;0.43;;;;;;;-0.08;83.27;100944.03;5127578;28;20058;-72
2024/03/17 00:25:15;;;;;;;1.10;1.00;;;;;;;-0.10;83.07;100939.66;5127625;28;20030;-74
2024/03/17 00:27:43;;;;;;;0.70;0.70;;;;;;;-0.15;82.92;100931.81;5127770;28;20051;-72
2024/03/17 00:30:12;;;;;;;0.50;0.50;;;;;;;-0.08;82.31;100945.72;5127249;28;20019;-72
2024/03/17 00:32:38;;;;;;;0.50;0.50;;;;;;;-0.14;81.83;100939.53;5108775;28;20073;-74
2024/03/17 00:35:04;;;;;;;0.50;0.50;;;;;;;-0.17;82.21;100951.28;5108581;28;20024;-73
2024/03/17 00:37:30;;;;;;;0.60;0.60;;;;;;;-0.22;82.21;100956.19;5127283;28;20024;-72
2024/03/17 00:39:58;;;;;;;0.68;0.68;;;;;;;-0.20;81.97;100943.50;5126868;28;20116;-73
2024/03/17 00:42:23;;;;;;;0.70;0.70;;;;;;;-0.24;81.88;100955.25;5127268;28;20388;-74
2024/03/17 00:44:49;;;;;;;0.50;0.50;;;;;;;-0.19;82.06;100969.06;5127276;28;20487;-71
2024/03/17 00:47:14;;;;;;;0.60;0.60;;;;;;;-0.19;82.39;100978.44;5108955;28;20023;-72
2024/03/17 00:49:40;;;;;;;0.80;0.80;;;;;;;-0.19;82.07;100970.78;5127093;28;20019;-74
2024/03/17 00:52:05;;;;;;;0.50;0.50;;;;;;;-0.16;82.08;100976.03;5128164;28;20038;-73
2024/03/17 00:54:31;;;;;;;0.50;0.50;;;;;;;-0.22;81.60;100980.84;5125739;28;20024;-72
2024/03/17 00:56:56;;;;;;;0.40;0.40;;;;;;;-0.27;81.62;100967.84;5127023;28;20023;-74
2024/03/17 00:59:21;;;;;;;0.50;0.50;;;;;;;-0.26;81.89;100950.06;5126813;28;20065;-74
2024/03/17 01:01:47;;;;;;;0.50;0.50;;;;;;;-0.13;82.13;100984.66;5108506;28;20440;-73
2024/03/17 01:04:12;;;;;;;0.50;0.50;;;;;;;-0.14;82.20;100995.69;5126718;28;20023;-74
2024/03/17 01:06:40;;;;;;;0.50;0.50;;;;;;;-0.16;81.18;100981.13;5126595;28;20080;-73
2024/03/17 01:09:06;;;;;;;0.50;0.50;;;;;;;-0.19;80.81;100996.31;5126685;28;20034;-69
2024/03/17 01:11:31;;;;;;;0.50;0.50;;;;;;;-0.25;80.90;100994.31;5126409;28;20019;-73
2024/03/17 01:13:57;;;;;;;1.00;0.98;;;;;;;-0.23;81.18;101002.06;5108354;28;20028;-72
2024/03/17 01:16:22;;;;;;;0.50;0.50;;;;;;;-0.34;81.27;100999.91;5126172;28;20032;-71
2024/03/17 01:18:48;;;;;;;0.50;0.50;;;;;;;-0.31;81.25;101000.03;5107525;28;20072;-72
2024/03/17 01:21:13;;;;;;;0.52;0.52;;;;;;;-0.30;81.88;100996.66;5124861;28;20028;-73
2024/03/17 01:23:39;;;;;;;0.50;0.50;;;;;;;-0.22;81.41;100991.91;5124748;28;20028;-73
2024/03/17 01:26:05;;;;;;;0.50;0.50;;;;;;;-0.26;80.94;101002.78;5126146;28;20024;-75
2024/03/17 01:28:30;;;;;;;1.10;1.02;;;;;;;-0.26;81.20;101000.25;5126318;28;20077;-72
2024/03/17 01:30:56;;;;;;;0.50;0.50;;;;;;;-0.30;81.37;101003.44;5107630;28;20379;-73
2024/03/17 01:33:21;;;;;;;0.50;0.50;;;;;;;-0.26;81.69;101007.91;5125657;28;20015;-71
2024/03/17 01:35:46;;;;;;;3.50;0.98;;;;;;;-0.28;81.38;101012.03;5126079;28;20019;-73
2024/03/17 01:38:12;;;;;;;0.70;0.70;;;;;;;-0.37;81.49;100997.19;5126265;28;20020;-75
2024/03/17 01:40:37;;;;;;;0.40;0.40;;;;;;;-0.40;81.17;101007.28;5125574;28;20130;-73
2024/03/17 01:43:02;;;;;;;0.50;0.50;;;;;;;-0.35;81.25;101010.88;5125738;28;20030;-72
2024/03/17 01:45:34;;;;;;;0.50;0.50;;;;;;;-0.35;81.05;101023.66;5125671;28;20045;-72
2024/03/17 01:48:01;;;;;;;;;;;;;;;-0.38;81.05;101031.16;5126023;28;20024;-73
2024/03/17 01:50:33;;;;;;;0.50;0.50;;;;;;;-0.45;81.12;101024.91;5125861;28;19929;-72
2024/03/17 01:53:04;;;;;;;0.60;0.60;;;;;;;-0.45;80.95;101029.13;5125781;28;20108;-71
2024/03/17 01:55:30;;;;;;;0.70;0.70;;;;;;;-0.59;81.13;101029.34;5107492;28;20024;-73
2024/03/17 01:57:56;;;;;;;0.50;0.50;;;;;;;-0.72;81.51;101025.38;5125727;28;20047;-72
2024/03/17 02:00:22;;;;;;;5.30;1.05;;;;;;;-0.70;81.91;101021.19;5125768;28;20054;-72
2024/03/17 02:02:48;;;;;;;0.60;0.60;;;;;;;-0.73;81.95;101027.81;5124504;28;20172;-72
2024/03/17 02:05:14;;;;;;;0.60;0.60;;;;;;;-0.76;81.85;101026.88;5125882;28;20039;-72
2024/03/17 02:07:40;;;;;;;0.50;0.50;;;;;;;-0.80;81.70;101042.81;5125717;28;20038;-73
2024/03/17 02:10:08;;;;;;;0.50;0.50;;;;;;;-0.86;81.82;101046.75;5125553;28;20094;-72
2024/03/17 02:12:34;;;;;;;0.55;0.55;;;;;;;-0.90;82.03;101043.19;5125557;28;20102;-72
2024/03/17 02:15:00;;;;;;;0.50;0.50;;;;;;;-0.99;82.00;101048.69;5124039;28;20053;-72
2024/03/17 02:17:27;;;;;;;0.50;0.50;;;;;;;-1.01;82.49;101056.25;5106524;28;20099;-73
2024/03/17 02:19:52;;;;;;;0.80;0.80;;;;;;;-1.05;82.66;101056.03;5125352;28;20020;-73
2024/03/17 02:22:18;;;;;;;3.22;0.90;;;;;;;-1.11;82.66;101056.63;5125598;28;20084;-71
2024/03/17 02:24:43;;;;;;;0.50;0.50;;;;;;;-1.13;82.57;101066.72;5125152;28;20472;-73
2024/03/17 02:27:09;;;;;;;0.60;0.60;;;;;;;-1.12;82.74;101065.06;5125188;28;20087;-73
2024/03/17 02:29:36;;;;;;;0.50;0.50;;;;;;;-1.14;82.71;101074.31;5123866;28;20020;-73
2024/03/17 02:32:06;;;;;;;0.50;0.50;;;;;;;-1.16;82.86;101086.97;5125431;28;20524;-71
2024/03/17 02:34:35;;;;;;;0.60;0.60;;;;;;;-1.22;82.94;101081.56;5125340;28;20028;-73
2024/03/17 02:37:02;;;;;;;0.50;0.50;;;;;;;-1.22;82.88;101099.41;5125360;28;20024;-71
2024/03/17 02:39:34;;;;;;;0.50;0.50;;;;;;;-1.24;82.97;101100.97;5124977;28;20019;-71
2024/03/17 02:42:04;;;;;;;0.50;0.50;;;;;;;-1.28;82.87;101102.50;5125359;28;20031;-72
2024/03/17 02:44:30;;;;;;;0.50;0.50;;;;;;;-1.31;82.92;101098.94;5125106;28;20024;-71
2024/03/17 02:46:59;;;;;;;0.50;0.50;;;;;;;-1.32;83.00;101103.13;5125241;28;20033;-72
2024/03/17 02:49:27;;;;;;;0.50;0.50;;;;;;;-1.39;83.13;101109.59;5124807;28;20055;-73
2024/03/17 02:51:54;;;;;;;0.50;0.50;;;;;;;-1.39;83.38;101106.19;5125243;28;20019;-72
2024/03/17 02:54:20;;;;;;;2.20;0.93;;;;;;;-1.39;83.44;101114.69;5123653;28;20091;-73
2024/03/17 02:56:46;;;;;;;0.50;0.50;;;;;;;-1.40;83.57;101114.59;5125388;28;20024;-71
2024/03/17 02:59:11;;;;;;;0.50;0.50;;;;;;;-1.48;83.53;101121.84;5124962;28;20027;-73
2024/03/17 03:01:36;;;;;;;0.57;0.57;;;;;;;-1.45;83.72;101118.59;5125198;28;20028;-73
2024/03/17 03:04:02;;;;;;;0.50;0.50;;;;;;;-1.45;83.78;101116.06;5124848;28;20024;-66
2024/03/17 03:06:27;;;;;;;0.50;0.50;;;;;;;-1.52;83.78;101105.50;5124941;28;20019;-66
2024/03/17 03:08:53;;;;;;;0.70;0.70;;;;;;;-1.49;83.67;101125.19;5106509;28;20032;-67
2024/03/17 03:11:18;;;;;;;0.47;0.47;;;;;;;-1.54;83.68;101118.97;5106560;28;20031;-67
2024/03/17 03:13:43;;;;;;;0.50;0.50;;;;;;;-1.52;83.92;101130.97;5124719;28;20028;-66
2024/03/17 03:16:11;;;;;;;0.50;0.50;;;;;;;-1.58;83.78;101124.72;5124960;28;20049;-65
2024/03/17 03:18:37;;;;;;;0.50;0.50;;;;;;;-1.53;83.81;101152.16;5124729;28;20019;-65
2024/03/17 03:21:03;;;;;;;35.08;1.52;;;;;;;-1.54;83.41;101147.88;5124489;28;20090;-66
2024/03/17 03:23:29;;;;;;;0.52;0.52;;;;;;;-1.57;83.89;101150.25;5123414;28;20023;-65
2024/03/17 03:25:56;;;;;;;0.50;0.50;;;;;;;-1.57;83.85;101155.34;5124857;28;20072;-66
2024/03/17 03:28:23;;;;;;;0.57;0.57;;;;;;;-1.59;83.65;101158.59;5124706;28;20084;-66
2024/03/17 03:30:48;;;;;;;0.50;0.50;;;;;;;-1.59;83.78;101154.38;5126531;28;20022;-66
2024/03/17 03:33:13;;;;;;;0.50;0.50;;;;;;;-1.63;83.97;101155.03;5128222;28;20023;-66
2024/03/17 03:35:39;;;;;;;0.50;0.50;;;;;;;-1.58;83.74;101176.50;5128324;28;20049;-66
2024/03/17 03:38:05;;;;;;;0.50;0.50;;;;;;;-1.63;83.49;101163.53;5109990;28;20060;-65
2024/03/17 03:40:30;;;;;;;0.50;0.50;;;;;;;-1.61;83.67;101161.06;5126552;28;20113;-70
2024/03/17 03:42:57;;;;;;;0.50;0.50;;;;;;;-1.65;83.56;101164.25;5126976;28;20015;-71
2024/03/17 03:45:22;;;;;;;0.50;0.50;;;;;;;-1.67;83.42;101168.38;5128146;28;20023;-72
2024/03/17 03:47:49;;;;;;;0.57;0.57;;;;;;;-1.73;83.43;101158.75;5127715;28;20020;-71
2024/03/17 03:50:17;;;;;;;0.43;0.43;;;;;;;-1.72;83.52;101179.97;5127977;28;20023;-70
2024/03/17 03:52:42;;;;;;;5.88;1.58;;;;;;;-1.77;83.30;101162.78;5126711;28;20027;-68
2024/03/17 03:55:14;;;;;;;0.50;0.50;;;;;;;-1.75;83.25;101170.50;5127947;28;20028;-71
2024/03/17 03:57:47;;;;;;;0.50;0.50;;;;;;;-1.79;83.06;101177.09;5109434;28;20027;-72
2024/03/17 04:00:18;;;;;;;0.52;0.52;;;;;;;-1.79;83.18;101183.88;5109219;28;20032;-71
2024/03/17 04:02:44;;;;;;;0.60;0.60;;;;;;;-1.82;82.97;101186.25;5126497;28;20040;-71
2024/03/17 04:05:10;;;;;;;0.60;0.60;;;;;;;-1.81;83.14;101196.50;5127664;28;20027;-72
2024/03/17 04:07:36;;;;;;;0.50;0.50;;;;;;;-1.85;83.32;101203.91;5126310;28;20016;-72
2024/03/17 04:10:03;;;;;;;0.50;0.50;;;;;;;-1.85;83.49;101206.44;5127316;28;20028;-72
2024/03/17 04:12:30;;;;;;;0.50;0.50;;;;;;;-1.86;83.51;101210.66;5127422;28;20015;-72
2024/03/17 04:14:56;;;;;;;0.50;0.50;;;;;;;-1.90;83.57;101199.41;5126103;28;20069;-72
2024/03/17 04:17:23;;;;;;;0.60;0.60;;;;;;;-1.93;83.44;101198.38;5127624;28;20083;-71
2024/03/17 04:19:48;;;;;;;0.50;0.50;;;;;;;-1.91;83.47;101217.16;5108775;28;20058;-72
2024/03/17 04:22:16;;;;;;;0.50;0.50;;;;;;;-1.95;83.48;101221.19;5127523;28;20031;-71
2024/03/17 04:24:44;;;;;;;0.50;0.50;;;;;;;-1.93;83.50;101228.94;5126121;28;20050;-70
2024/03/17 04:27:09;;;;;;;0.50;0.50;;;;;;;-2.02;83.55;101219.97;5127283;28;20519;-72
2024/03/17 04:29:34;;;;;;;0.50;0.50;;;;;;;-1.97;83.57;101226.97;5109083;28;20039;-70
2024/03/17 04:32:00;;;;;;;0.60;0.60;;;;;;;-2.04;83.44;101224.09;5127475;28;20518;-71
2024/03/17 04:34:27;;;;;;;0.60;0.60;;;;;;;-2.02;83.56;101234.38;5125514;28;20035;-71
2024/03/17 04:36:53;;;;;;;0.50;0.50;;;;;;;-2.02;83.55;101247.97;5127175;28;20045;-70
2024/03/17 04:39:19;;;;;;;0.50;0.50;;;;;;;-2.03;83.58;101258.06;5108656;28;20024;-70
2024/03/17 04:41:45;;;;;;;0.70;0.70;;;;;;;-2.09;83.58;101250.94;5126524;28;20039;-69
2024/03/17 04:44:10;;;;;;;0.50;0.50;;;;;;;-2.08;83.77;101270.53;5126962;28;20027;-71
2024/03/17 04:46:36;;;;;;;0.50;0.50;;;;;;;-2.09;83.70;101268.75;5127123;28;20047;-70
2024/03/17 04:49:03;;;;;;;0.50;0.50;;;;;;;-2.09;83.83;101278.06;5126729;28;20023;-70
2024/03/17 04:51:29;;;;;;;0.50;0.50;;;;;;;-2.11;83.55;101295.81;5127033;28;20020;-71
2024/03/17 04:53:55;;;;;;;0.50;0.50;;;;;;;-2.13;83.86;101300.81;5127036;28;20027;-71
2024/03/17 04:56:20;;;;;;;0.52;0.52;;;;;;;-2.18;83.92;101273.31;5108445;28;20028;-70
2024/03/17 04:58:46;;;;;;;0.60;0.60;;;;;;;-2.16;83.86;101294.66;5126727;28;20052;-71
2024/03/17 05:01:12;;;;;;;0.60;0.60;;;;;;;-2.17;83.75;101290.34;5126470;28;20378;-71
2024/03/17 05:03:38;;;;;;;0.50;0.50;;;;;;;-2.22;83.74;101296.84;5126609;28;20027;-70
2024/03/17 05:06:04;;;;;;;0.68;0.68;;;;;;;-2.21;83.71;101316.38;5126992;28;20068;-69
2024/03/17 05:08:31;;;;;;;0.50;0.50;;;;;;;-2.23;83.70;101316.31;5126602;28;20437;-70
2024/03/17 05:11:06;;;;;;;0.88;0.75;;;;;;;-2.26;83.94;101317.00;5126512;28;20281;-72
2024/03/17 05:13:33;;;;;;;9.63;1.05;;;;;;;-2.29;83.78;101331.22;5126465;28;20035;-70
2024/03/17 05:16:00;;;;;;;0.60;0.60;;;;;;;-2.33;83.86;101319.97;5126500;28;20031;-70
2024/03/17 05:18:26;;;;;;;0.50;0.50;;;;;;;-2.46;83.78;101305.63;5126137;28;20028;-71
2024/03/17 05:21:09;;;;;;;0.50;0.50;;;;;;;-2.29;83.69;101344.81;5107737;28;20039;-71
2024/03/17 05:23:37;;;;;;;0.50;0.50;;;;;;;-2.29;83.70;101355.00;5108118;28;20035;-71
2024/03/17 05:26:06;;;;;;;0.50;0.50;;;;;;;-2.31;83.90;101359.09;5126280;28;20030;-70
2024/03/17 05:28:32;;;;;;;0.50;0.50;;;;;;;-2.29;84.12;101349.91;5107681;28;20095;-70
2024/03/17 05:30:58;;;;;;;0.50;0.50;;;;;;;-2.22;84.45;101355.34;5107696;28;20023;-69
2024/03/17 05:33:25;;;;;;;0.50;0.50;;;;;;;-2.09;84.56;101354.41;5125877;28;20020;-70
2024/03/17 05:35:54;;;;;;;0.68;0.68;;;;;;;-1.91;84.62;101363.13;5125930;28;20071;-71
2024/03/17 05:38:21;;;;;;;0.50;0.50;;;;;;;-1.72;84.90;101370.91;5125970;28;20015;-71
2024/03/17 05:40:57;;;;;;;0.50;0.50;;;;;;;-1.44;85.88;101375.06;5125623;28;20543;-70
2024/03/17 05:43:23;;;;;;;0.50;0.50;;;;;;;-1.22;85.73;101369.50;5126005;28;20027;-71
2024/03/17 05:45:53;;;;;;;0.50;0.50;;;;;;;-0.92;86.15;101381.28;5124490;28;20035;-70
2024/03/17 05:48:19;;;;;;;0.50;0.50;;;;;;;-0.64;86.32;101383.66;5107527;28;20118;-71
2024/03/17 05:50:45;;;;;;;2.20;1.17;;;;;;;-0.48;85.85;101379.38;5124356;28;20020;-69
2024/03/17 05:53:10;;;;;;;0.65;0.65;;;;;;;-0.23;86.33;101395.97;5125048;28;20061;-70
2024/03/17 05:55:36;;;;;;;0.50;0.50;;;;;;;-0.07;86.18;101397.63;5125654;28;20079;-70
2024/03/17 05:58:02;;;;;;;0.50;0.50;;;;;;;0.01;85.89;101395.47;5125850;28;20043;-70
2024/03/17 06:00:28;;;;;;;0.60;0.60;;;;;;;0.21;86.07;101398.13;5125365;28;20053;-71
2024/03/17 06:02:53;;;;;;;0.50;0.50;;;;;;;0.52;87.19;101406.47;5125326;28;20079;-69
2024/03/17 06:05:18;;;;;;;0.50;0.50;;;;;;;1.03;88.80;101410.56;5125745;28;20023;-71
2024/03/17 06:07:44;;;;;;;0.45;0.45;;;;;;;1.65;89.39;101417.63;5107251;28;20047;-70
2024/03/17 06:10:09;;;;;;;0.70;0.70;;;;;;;2.02;89.58;101403.88;5125345;28;20026;-70
2024/03/17 06:12:34;;;;;;;0.73;0.73;;;;;;;2.32;89.45;101399.97;5125460;28;20019;-71
2024/03/17 06:15:01;;;;;;;0.77;0.60;;;;;;;2.70;89.22;101405.81;5107210;28;20054;-71
2024/03/17 06:17:27;;;;;;;0.52;0.52;;;;;;;2.92;88.93;101406.69;5107182;28;20047;-71
2024/03/17 06:19:52;;;;;;;0.73;0.70;;;;;;;3.14;85.80;101411.75;5125072;28;20384;-71
2024/03/17 06:22:18;;;;;;;0.40;0.40;;;;;;;3.20;87.15;101418.00;5125255;28;20024;-70
2024/03/17 06:24:43;;;;;;;0.50;0.50;;;;;;;3.38;86.84;101422.09;5125458;28;20035;-71
2024/03/17 06:27:08;;;;;;;0.50;0.50;;;;;;;3.39;85.48;101428.97;5125470;28;20020;-71
2024/03/17 06:29:34;;;;;;;0.50;0.50;;;;;;;3.55;85.78;101437.22;5106623;28;20114;-71
2024/03/17 06:31:59;;;;;;;0.40;0.40;;;;;;;3.57;84.66;101433.91;5125308;28;20038;-70
2024/03/17 06:34:25;;;;;;;0.50;0.50;;;;;;;3.72;84.38;101443.88;5124981;28;20030;-69
2024/03/17 06:36:51;;;;;;;0.60;0.60;;;;;;;4.02;85.83;101446.63;5125148;28;20092;-71
2024/03/17 06:39:16;;;;;;;0.50;0.50;;;;;;;4.15;83.50;101460.78;5125158;28;20079;-70
2024/03/17 06:41:42;;;;;;;0.40;0.40;;;;;;;4.34;85.44;101449.44;5124641;28;20043;-70
2024/03/17 06:44:09;;;;;;;0.60;0.60;;;;;;;4.73;83.95;101461.00;5123796;28;20024;-69
2024/03/17 06:46:34;;;;;;;0.57;0.57;;;;;;;4.70;79.51;101463.47;5125327;28;20471;-71
2024/03/17 06:49:00;;;;;;;0.50;0.50;;;;;;;4.45;79.85;101442.97;5124947;28;20023;-70
2024/03/17 06:51:25;;;;;;;0.50;0.50;;;;;;;4.40;78.46;101459.94;5125064;28;20016;-71
2024/03/17 06:53:50;;;;;;;0.40;0.40;;;;;;;4.44;78.56;101466.91;5125192;28;20026;-70
2024/03/17 06:56:16;;;;;;;0.50;0.50;;;;;;;4.68;79.54;101480.56;5125005;28;20422;-70
2024/03/17 06:58:41;;;;;;;0.80;0.50;;;;;;;4.91;78.40;101471.03;5124168;28;20228;-70
2024/03/17 07:01:08;;;;;;;0.82;0.82;;;;;;;5.00;78.49;101479.88;5126195;28;20095;-69
2024/03/17 07:03:33;;;;;;;0.50;0.50;;;;;;;5.19;77.03;101489.91;5125536;28;20062;-70
2024/03/17 07:06:04;;;;;;;0.40;0.40;;;;;;;5.35;78.63;101499.81;5128981;28;20019;-69
2024/03/17 07:08:30;;;;;;;0.40;0.40;;;;;;;5.63;78.15;101491.22;5110486;28;20053;-70
2024/03/17 07:10:55;;;;;;;0.60;0.60;;;;;;;6.29;79.71;101503.41;5129067;28;20023;-71
2024/03/17 07:13:21;;;;;;;0.63;0.63;;;;;;;6.64;79.16;101493.16;5128790;28;20051;-70
2024/03/17 07:15:47;;;;;;;0.40;0.40;;;;;;;6.92;80.02;101493.81;5110415;28;20041;-70
2024/03/17 07:18:12;;;;;;;0.40;0.40;;;;;;;7.33;79.63;101492.19;5110149;28;20027;-69
2024/03/17 07:20:38;;;;;;;0.40;0.40;;;;;;;7.59;76.81;101488.44;5128565;28;20031;-69
2024/03/17 07:23:04;;;;;;;0.73;0.60;;;;;;;7.59;77.16;101496.19;5110140;28;20028;-70
2024/03/17 07:25:29;;;;;;;0.50;0.50;;;;;;;7.81;74.56;101494.94;5128571;28;20546;-69
2024/03/17 07:27:54;;;;;;;2.95;0.70;;;;;;;7.89;75.33;101495.06;5128496;28;20091;-68
2024/03/17 07:30:19;;;;;;;0.50;0.50;;;;;;;7.98;73.26;101500.44;5128126;28;20019;-69
2024/03/17 07:32:45;;;;;;;1.05;0.85;;;;;;;8.18;73.56;101503.41;5109901;28;20034;-68
2024/03/17 07:35:10;;;;;;;0.40;0.40;;;;;;;7.91;69.97;101502.00;5128526;28;20088;-70
2024/03/17 07:37:35;;;;;;;0.57;0.57;;;;;;;7.46;67.39;101498.47;5128332;28;20033;-69
2024/03/17 07:40:04;;;;;;;0.50;0.50;;;;;;;7.14;69.03;101506.38;5109721;28;20071;-71
2024/03/17 07:42:31;;;;;;;0.40;0.40;;;;;;;7.09;68.44;101510.56;5128595;28;20028;-69
2024/03/17 07:44:57;;;;;;;0.52;0.50;;;;;;;6.75;65.98;101508.91;5128431;28;20075;-69
2024/03/17 07:47:22;;;;;;;0.57;0.57;;;;;;;6.33;64.70;101507.81;5128483;28;20023;-69
2024/03/17 07:49:48;;;;;;;0.40;0.40;;;;;;;5.98;65.57;101503.38;5127823;28;20160;-71
2024/03/17 07:52:13;;;;;;;0.40;0.40;;;;;;;6.48;71.02;101519.38;5128114;28;20019;-69
2024/03/17 07:54:38;;;;;;;4.35;0.65;;;;;;;6.90;68.99;101517.88;5128076;28;20481;-66
2024/03/17 07:57:04;;;;;;;0.50;0.50;;;;;;;6.79;65.39;101525.31;5128062;28;20026;-68
2024/03/17 07:59:29;;;;;;;0.40;0.40;;;;;;;6.35;65.94;101526.78;5126923;28;20051;-69
2024/03/17 08:01:57;;;;;;;0.43;0.43;;;;;;;5.94;63.30;101538.50;5127749;28;20387;-68
2024/03/17 08:04:22;;;;;;;1.02;0.60;;;;;;;5.39;60.09;101532.56;5127784;28;20069;-68
2024/03/17 08:06:47;;;;;;;1.95;1.23;;;;;;;4.83;62.47;101534.22;5127895;28;20024;-70
2024/03/17 08:09:13;;;;;;;1.33;0.57;;;;;;;4.95;66.42;101538.94;5127815;28;20027;-72
2024/03/17 08:11:38;;;;;;;0.43;0.43;;;;;;;5.28;66.62;101547.69;5127724;28;20483;-70
2024/03/17 08:14:05;;;;;;;0.63;0.63;;;;;;;5.42;66.06;101554.16;5127801;28;20088;-72
2024/03/17 08:16:31;;;;;;;1.67;0.60;;;;;;;5.18;62.12;101562.84;5125410;28;20015;-70
2024/03/17 08:18:57;;;;;;;1.40;1.30;;;;;;;4.99;59.46;101557.91;5127555;28;20085;-67
2024/03/17 08:21:23;;;;;;;1.65;0.80;;;;;;;4.68;59.23;101568.91;5108821;28;20510;-71
2024/03/17 08:23:48;;;;;;;0.50;0.50;;;;;;;4.58;61.36;101565.13;5126036;28;20023;-70
2024/03/17 08:26:14;;;;;;;0.50;0.50;;;;;;;4.18;60.04;101564.59;5109029;28;20412;-70
2024/03/17 08:28:39;;;;;;;0.90;0.90;;;;;;;3.92;60.47;101574.75;5126132;28;20027;-69
2024/03/17 08:31:05;;;;;;;0.50;0.50;;;;;;;3.74;60.19;101571.50;5127260;28;20396;-70
2024/03/17 08:33:32;;;;;;;0.60;0.60;;;;;;;3.90;61.46;101563.53;5126166;28;20034;-71
2024/03/17 08:36:09;;;;;;;0.40;0.40;;;;;;;4.05;60.50;101564.94;5127206;28;20098;-70
2024/03/17 08:38:36;;;;;;;0.50;0.50;;;;;;;4.16;59.85;101565.34;5108919;28;20085;-72
2024/03/17 08:41:06;;;;;;;0.50;0.50;;;;;;;4.56;59.21;101565.91;5126429;28;20119;-71
2024/03/17 08:43:32;;;;;;;0.50;0.50;;;;;;;4.89;59.02;101567.88;5127279;28;20038;-72
2024/03/17 08:46:03;;;;;;;0.40;0.40;;;;;;;5.23;58.89;101573.28;5127256;28;20083;-72
2024/03/17 08:51:05;;;;;;;0.50;0.50;;;;;;;5.52;59.45;101573.34;5451840;23;20530;-71
2024/03/17 08:53:30;;;;;;;0.50;0.50;;;;;;;5.88;59.35;101570.97;5085217;28;20040;-67
2024/03/17 08:55:57;;;;;;;0.63;0.63;;;;;;;6.34;57.47;101566.31;5088300;28;20016;-69
2024/03/17 08:58:23;;;;;;;0.40;0.40;;;;;;;6.12;55.90;101564.84;5106180;28;20020;-68
2024/03/17 09:00:49;;;;;;;0.40;0.40;;;;;;;5.86;54.85;101572.63;5106334;28;20036;-68
2024/03/17 09:03:14;;;;;;;0.50;0.50;;;;;;;5.63;53.97;101580.53;5087962;28;20024;-69
2024/03/17 09:05:41;;;;;;;0.63;0.50;;;;;;;5.65;54.75;101590.06;5105584;28;20031;-69
2024/03/17 09:08:10;;;;;;;0.60;0.60;;;;;;;5.69;55.00;101584.16;5106110;28;20379;-68
2024/03/17 09:10:42;;;;;;;0.40;0.40;;;;;;;6.15;54.48;101576.09;5106180;28;20103;-68
2024/03/17 09:13:15;;;;;;;0.40;0.40;;;;;;;6.36;52.12;101577.53;5105835;28;20094;-69
2024/03/17 09:15:40;;;;;;;0.40;0.40;;;;;;;6.27;52.24;101570.41;5087805;28;20020;-69
2024/03/17 09:18:06;;;;;;;0.47;0.47;;;;;;;6.11;51.46;101582.00;5106049;28;20045;-68
2024/03/17 09:20:31;;;;;;;0.80;0.80;;;;;;;5.98;52.06;101579.84;5087503;28;20024;-70
2024/03/17 09:22:56;;;;;;;0.40;0.40;;;;;;;6.03;50.68;101570.53;5087666;28;20020;-70
2024/03/17 09:25:23;;;;;;;0.55;0.55;;;;;;;6.29;52.75;101565.31;5105875;28;20028;-69
2024/03/17 09:27:48;;;;;;;0.50;0.50;;;;;;;6.73;51.39;101580.25;5105766;28;20085;-70
2024/03/17 09:30:14;;;;;;;0.88;0.60;;;;;;;7.08;51.61;101569.06;5087522;28;20024;-67
2024/03/17 09:32:41;;;;;;;0.45;0.45;;;;;;;7.52;50.94;101576.16;5105967;28;20103;-69
2024/03/17 09:35:07;;;;;;;1.10;0.63;;;;;;;7.55;48.78;101580.50;5087211;28;20031;-69
2024/03/17 09:37:32;;;;;;;0.55;0.55;;;;;;;7.46;50.08;101578.56;5105832;28;20020;-69
2024/03/17 09:39:59;;;;;;;4.20;0.60;;;;;;;7.71;49.23;101565.34;5087331;28;20478;-71
2024/03/17 09:42:27;;;;;;;0.93;0.60;;;;;;;7.91;48.97;101577.00;5105549;28;20031;-70
2024/03/17 09:44:54;;;;;;;0.60;0.60;;;;;;;8.10;49.10;101572.22;5087241;28;20023;-68
2024/03/17 09:47:21;;;;;;;0.40;0.40;;;;;;;8.15;44.99;101572.31;5105430;28;20020;-71
2024/03/17 09:49:48;;;;;;;0.40;0.40;;;;;;;8.01;46.38;101572.03;5105773;28;20020;-69
2024/03/17 09:52:22;;;;;;;0.98;0.73;;;;;;;8.21;47.04;101581.91;5105134;28;20047;-70
2024/03/17 09:54:52;;;;;;;0.45;0.45;;;;;;;8.14;45.66;101583.50;5087467;28;20035;-70
2024/03/17 09:57:18;;;;;;;0.40;0.40;;;;;;;7.77;44.40;101592.22;5105517;28;20024;-68
2024/03/17 09:59:50;;;;;;;2.25;0.60;;;;;;;7.76;44.82;101595.66;5105445;28;20020;-69
2024/03/17 10:02:18;;;;;;;0.65;0.65;;;;;;;7.93;44.72;101600.31;5105496;28;20050;-69
2024/03/17 10:04:43;;;;;;;0.40;0.40;;;;;;;8.04;47.18;101580.72;5087106;28;20032;-68
2024/03/17 10:07:09;;;;;;;0.40;0.40;;;;;;;8.58;45.90;101586.97;5105320;28;20031;-69
2024/03/17 10:09:34;;;;;;;0.40;0.40;;;;;;;8.63;44.08;101578.44;5087092;28;20020;-68
2024/03/17 10:11:59;;;;;;;0.85;0.65;;;;;;;8.49;44.46;101588.50;5087271;28;20472;-70
2024/03/17 10:14:25;;;;;;;0.88;0.60;;;;;;;8.64;44.12;101597.44;5104962;28;20034;-72
2024/03/17 10:16:50;;;;;;;0.52;0.52;;;;;;;8.85;44.07;101590.94;5105300;28;20403;-72
2024/03/17 10:19:23;;;;;;;0.40;0.40;;;;;;;9.39;46.46;101607.34;5086929;28;20019;-69
2024/03/17 10:21:49;;;;;;;0.50;0.50;;;;;;;10.05;45.96;101608.28;5086805;28;20035;-74
2024/03/17 10:24:19;;;;;;;0.40;0.40;;;;;;;10.61;43.96;101601.19;5086874;28;20024;-73
2024/03/17 10:26:46;;;;;;;0.50;0.50;;;;;;;10.98;42.78;101615.41;5105150;28;20024;-71
2024/03/17 10:29:32;;;;;;;0.70;0.70;;;;;;;10.92;43.00;101621.44;5086994;28;20039;-72
2024/03/17 10:32:04;;;;;;;2.08;0.47;;;;;;;10.91;42.27;101617.06;5087021;28;20024;-71
2024/03/17 10:34:37;;;;;;;0.50;0.50;;;;;;;10.96;42.48;101619.75;5105002;28;20031;-70
2024/03/17 10:37:20;;;;;;;0.65;0.45;;;;;;;11.16;42.00;101632.91;5087006;28;20031;-70
2024/03/17 10:39:47;;;;;;;0.40;0.40;;;;;;;10.70;42.01;101617.75;5089389;28;20031;-70
2024/03/17 10:42:13;;;;;;;0.98;0.98;;;;;;;11.01;43.58;101626.72;5090878;28;20019;-69
2024/03/17 10:44:40;;;;;;;0.40;0.40;;;;;;;11.58;43.40;101628.03;5109153;28;20038;-70
2024/03/17 10:47:09;;;;;;;0.40;0.40;;;;;;;11.53;40.49;101617.59;5109232;28;20048;-69
2024/03/17 10:49:37;;;;;;;0.47;0.47;;;;;;;11.43;42.12;101617.50;5109017;28;20020;-71
2024/03/17 10:52:04;;;;;;;7.43;0.70;;;;;;;11.45;41.61;101621.00;5090647;28;20067;-71
2024/03/17 10:54:31;;;;;;;0.52;0.43;;;;;;;11.56;43.78;101614.16;5108923;28;20551;-71
2024/03/17 10:57:04;;;;;;;0.30;0.30;;;;;;;12.07;42.72;101616.19;5090630;28;20118;-70
2024/03/17 10:59:41;;;;;;;0.40;0.40;;;;;;;12.51;43.50;101605.94;5108576;28;20084;-71
2024/03/17 11:02:24;;;;;;;0.30;0.30;;;;;;;12.93;41.71;101611.25;5108773;28;20074;-70
2024/03/17 11:04:56;;;;;;;0.68;0.63;;;;;;;13.02;39.89;101586.91;5108937;28;20020;-72
2024/03/17 11:07:22;;;;;;;0.95;0.63;;;;;;;12.50;37.73;101593.81;5108846;28;20028;-74
2024/03/17 11:09:49;;;;;;;0.32;0.32;;;;;;;11.77;36.49;101599.56;5109016;28;20031;-71
2024/03/17 11:12:48;;;;;;;0.40;0.40;;;;;;;11.13;37.01;101602.53;5108683;28;20020;-72
2024/03/17 11:15:19;;;;;;;0.70;0.57;;;;;;;10.90;36.67;101613.63;5108779;28;20050;-72
2024/03/17 11:17:53;;;;;;;0.40;0.40;;;;;;;10.74;36.71;101614.31;5090385;28;20083;-69
2024/03/17 11:20:24;;;;;;;0.30;0.30;;;;;;;11.36;37.59;101596.69;5108382;28;20034;-70
2024/03/17 11:22:54;;;;;;;0.40;0.40;;;;;;;11.63;37.14;101608.13;5090269;28;20058;-69
2024/03/17 11:25:25;;;;;;;0.45;0.45;;;;;;;11.94;35.48;101604.84;5108468;28;20046;-70
2024/03/17 11:27:53;;;;;;;0.30;0.30;;;;;;;11.62;35.48;101609.00;5090136;28;20024;-69
2024/03/17 11:30:44;;;;;;;0.47;0.43;;;;;;;11.81;35.11;101611.72;5090094;28;20034;-71